Colorado do Oeste, Brazil
Current Conditions -  °F | °C
As of 7:00 PM on Sunday 21 Dec 2014 (Local Time) from SLTR Reporting Station
Broken Clouds Broken Clouds  
Wind Chill: 81°   Ceiling: 20000
Heat Index: 86°   Visibility: 6mi
Dew Point: 75°   Wind: 7mph
Humidity: 84%   Direction: 340°NNW
Pressure: 29.68"   Gusts: NA
Location:  13.12°S, 60.54°W
Report Text: SLTR 212300Z 34006KT 9999 FEW015 FEW020CB BKN200 27/24 Q1005
Loading
Personal Weather Stations






























Interactive Weather Map New forecast layout! Learn more

10-Day Weather Forecast

Advertisements
Track Severe Weather on mobile